Time;durP1;ratioP1;P1;durP2;ratioP2;P2;SDS_P1;SDS_P2;PMS_P1;PMS_P2;Temp;Humidity;BMP_temperature;BMP_pressure;BME280_temperature;BME280_humidity;BME280_pressure;Samples;Min_cycle;Max_cycle;Signal;HPM_P1;HPM_P2
2022/01/18 00:01:49;;;;;;;184.03;7.90;;;;;;;-145.18;100.00;46719.00;5030296;28;20259;-72
2022/01/18 00:04:14;;;;;;;91.93;6.30;;;;;;;-145.18;100.00;46717.03;5028155;28;20802;-72
2022/01/18 00:06:42;;;;;;;140.43;8.23;;;;;;;-145.18;100.00;46711.19;5030034;28;20307;-72
2022/01/18 00:09:08;;;;;;;55.77;4.97;;;;;;;-145.18;100.00;46715.09;5028079;28;20163;-72
2022/01/18 00:11:41;;;;;;;98.97;9.03;;;;;;;-145.18;100.00;46726.81;5029678;28;20270;-73
2022/01/18 00:14:13;;;;;;;98.90;5.43;;;;;;;-145.18;100.00;46730.72;5028052;28;20554;-72
2022/01/18 00:17:00;;;;;;;101.90;5.57;;;;;;;-145.18;100.00;46722.91;5029807;28;20342;-72
2022/01/18 00:19:25;;;;;;;54.72;4.20;;;;;;;-145.18;100.00;46734.63;5027918;28;20328;-72
2022/01/18 00:24:16;;;;;;;97.67;6.00;;;;;;;-145.18;100.00;46709.22;5028787;28;20263;-73
2022/01/18 00:26:42;;;;;;;22.97;5.43;;;;;;;-145.18;100.00;46719.00;5029631;28;20042;-73
2022/01/18 00:29:11;;;;;;;46.37;7.33;;;;;;;-145.18;100.00;46709.22;5026629;28;20128;-73
2022/01/18 00:39:06;;;;;;;112.10;7.47;;;;;;;-145.18;100.00;46726.81;5029167;28;20328;-72
2022/01/18 00:41:31;;;;;;;48.37;5.30;;;;;;;-145.18;100.00;46715.09;5029342;28;20306;-73
2022/01/18 00:43:57;;;;;;;62.37;5.30;;;;;;;-145.18;100.00;46713.13;5028260;28;20285;-73
2022/01/18 00:46:23;;;;;;;49.40;4.53;;;;;;;-145.18;100.00;46722.91;5027746;28;20044;-73
2022/01/18 00:48:52;;;;;;;89.30;6.10;;;;;;;-145.18;100.00;46717.03;5028567;28;20107;-73
2022/01/18 00:51:17;;;;;;;59.90;5.03;;;;;;;-145.18;100.00;46701.41;5028842;28;20283;-72
2022/01/18 00:53:45;;;;;;;83.83;5.93;;;;;;;-145.18;100.00;46707.28;5028971;28;20274;-73
2022/01/18 00:58:40;;;;;;;62.50;4.70;;;;;;;-145.18;100.00;46711.19;5028554;28;20282;-73
2022/01/18 01:01:07;;;;;;;75.30;4.60;;;;;;;-145.18;100.00;46719.00;5027115;28;20129;-72
2022/01/18 01:03:32;;;;;;;33.75;3.83;;;;;;;-145.18;100.00;46722.91;5028769;28;20278;-72
2022/01/18 01:05:58;;;;;;;42.10;5.13;;;;;;;-145.18;100.00;46734.63;5028554;28;20026;-72
2022/01/18 01:08:23;;;;;;;75.70;5.83;;;;;;;-145.18;100.00;46711.19;5028085;28;20103;-72
2022/01/18 01:10:49;;;;;;;51.87;6.00;;;;;;;-145.18;100.00;46713.13;5028349;28;20053;-71
2022/01/18 01:13:15;;;;;;;63.43;5.70;;;;;;;-145.18;100.00;46724.84;5029083;28;20064;-72
2022/01/18 01:16:16;;;;;;;66.87;5.37;;;;;;;-145.18;100.00;46709.22;5028535;28;20055;-72
2022/01/18 01:18:48;;;;;;;62.65;4.78;;;;;;;-145.18;100.00;46715.09;5027951;28;20263;-72
2022/01/18 01:34:57;;;;;;;39.85;4.70;;;;;;;-145.18;100.00;46701.41;5027700;28;20424;-72
2022/01/18 01:45:30;;;;;;;36.10;4.72;;;;;;;-145.18;100.00;46730.72;5027458;28;20068;-71
2022/01/18 01:47:56;;;;;;;35.40;4.45;;;;;;;-145.18;100.00;46736.56;5027559;28;20090;-71
2022/01/18 01:50:25;;;;;;;26.70;4.55;;;;;;;-145.18;100.00;46740.47;5027411;28;20045;-71
2022/01/18 01:52:54;;;;;;;30.00;4.90;;;;;;;-145.18;100.00;46719.00;5027550;28;20037;-71
2022/01/18 01:55:20;;;;;;;10.48;4.20;;;;;;;-145.18;100.00;46722.91;5027410;28;20053;-72
2022/01/18 01:57:46;;;;;;;18.65;3.72;;;;;;;-145.18;100.00;46724.84;5026154;28;20033;-71
2022/01/18 02:00:15;;;;;;;56.13;4.80;;;;;;;-145.18;100.00;46730.72;5026997;28;20204;-71
2022/01/18 02:02:41;;;;;;;11.00;4.20;;;;;;;-145.18;100.00;46722.91;5027363;28;20030;-71
2022/01/18 02:05:08;;;;;;;53.87;5.80;;;;;;;-145.18;100.00;46711.19;5043034;28;20409;-70
2022/01/18 02:07:33;;;;;;;37.90;4.70;;;;;;;-145.18;100.00;46715.09;5027535;28;20040;-70
2022/01/18 02:09:59;;;;;;;38.20;4.97;;;;;;;-145.18;100.00;46722.91;5027091;28;20033;-70
2022/01/18 02:12:24;;;;;;;22.60;4.30;;;;;;;-145.18;100.00;46711.19;5027154;28;20041;-70
2022/01/18 02:14:58;;;;;;;48.10;5.00;;;;;;;-145.18;100.00;46724.84;5027218;28;20510;-71
2022/01/18 02:22:54;;;;;;;59.55;5.00;;;;;;;-145.18;100.00;46724.84;5027215;28;20188;-70
2022/01/18 02:25:19;;;;;;;20.73;3.65;;;;;;;-145.18;100.00;46715.09;5026637;28;20474;-70
2022/01/18 02:27:45;;;;;;;46.70;4.20;;;;;;;-145.18;100.00;46709.22;5027272;28;20030;-70
2022/01/18 02:30:11;;;;;;;27.30;3.70;;;;;;;-145.18;100.00;46720.94;5026844;28;20076;-70
2022/01/18 02:32:37;;;;;;;21.50;3.45;;;;;;;-145.18;100.00;46715.09;5026349;28;20498;-70
2022/01/18 02:35:04;;;;;;;33.93;3.57;;;;;;;-145.18;100.00;46715.09;5026119;28;20053;-70
2022/01/18 02:37:30;;;;;;;34.30;4.20;;;;;;;-145.18;100.00;46719.00;5027968;28;20762;-70
2022/01/18 02:39:56;;;;;;;18.77;3.27;;;;;;;-145.18;100.00;46734.63;5026727;28;20112;-69
2022/01/18 02:42:29;;;;;;;30.30;3.60;;;;;;;-145.18;100.00;46734.63;5025820;28;20267;-70
2022/01/18 02:44:55;;;;;;;17.17;3.63;;;;;;;-145.18;100.00;46711.19;5026560;28;20152;-69
2022/01/18 02:47:22;;;;;;;65.20;4.50;;;;;;;-145.18;100.00;46722.91;5026980;28;20545;-70
2022/01/18 02:49:48;;;;;;;35.47;4.10;;;;;;;-145.18;100.00;46722.91;5026717;28;20328;-70
2022/01/18 02:52:15;;;;;;;35.45;4.28;;;;;;;-145.18;100.00;46717.03;5026704;28;20111;-70
2022/01/18 02:54:41;;;;;;;28.38;3.92;;;;;;;-145.18;100.00;46707.28;5026423;28;20050;-70
2022/01/18 02:57:12;;;;;;;34.67;4.20;;;;;;;-145.18;100.00;46724.84;5027580;28;20037;-70
2022/01/18 02:59:56;;;;;;;60.17;4.22;;;;;;;-145.18;100.00;46720.94;5026580;28;20329;-69
2022/01/18 03:05:14;;;;;;;100.77;5.07;;;;;;;-145.18;100.00;46720.94;5036633;28;20547;-70
2022/01/18 03:07:40;;;;;;;75.37;4.47;;;;;;;-145.18;100.00;46715.09;5026404;28;20278;-70
2022/01/18 03:10:09;;;;;;;130.87;6.57;;;;;;;-145.18;100.00;46711.19;5026078;28;20271;-70
2022/01/18 03:12:34;;;;;;;103.32;4.72;;;;;;;-145.18;100.00;46705.31;5026114;28;20275;-70
2022/01/18 03:15:00;;;;;;;53.30;4.17;;;;;;;-145.18;100.00;46711.19;5026634;28;20131;-70
2022/01/18 03:17:26;;;;;;;50.63;4.50;;;;;;;-145.18;100.00;46705.31;5026370;28;20025;-70
2022/01/18 03:19:51;;;;;;;67.00;4.97;;;;;;;-145.18;100.00;46707.28;5026369;28;20037;-72
2022/01/18 03:22:17;;;;;;;112.53;5.77;;;;;;;-145.18;100.00;46707.28;5025554;28;20819;-70
2022/01/18 03:24:47;;;;;;;115.90;6.03;;;;;;;-145.18;100.00;46707.28;5026388;28;20045;-70
2022/01/18 03:29:57;;;;;;;65.47;4.97;;;;;;;-145.18;100.00;46711.19;5026739;28;20344;-70
2022/01/18 03:32:23;;;;;;;107.33;7.23;;;;;;;-145.18;100.00;46722.91;5025870;28;20283;-70
2022/01/18 03:34:48;;;;;;;63.53;5.83;;;;;;;-145.18;100.00;46707.28;5026538;28;20085;-70
2022/01/18 03:37:14;;;;;;;105.37;6.87;;;;;;;-145.18;100.00;46707.28;5026390;28;20176;-70
2022/01/18 03:39:39;;;;;;;86.93;6.43;;;;;;;-145.18;100.00;46709.22;5026456;28;20049;-70
2022/01/18 03:45:06;;;;;;;108.37;6.73;;;;;;;-145.18;100.00;46705.31;5014573;28;20405;-70
2022/01/18 03:47:32;;;;;;;23.87;4.97;;;;;;;-145.18;100.00;46707.28;5029806;28;20258;-70
2022/01/18 03:49:58;;;;;;;90.73;6.77;;;;;;;-145.18;100.00;46720.94;5029722;28;20263;-70
2022/01/18 03:52:24;;;;;;;30.90;4.83;;;;;;;-145.18;100.00;46703.38;5029272;28;20325;-70
2022/01/18 03:54:50;;;;;;;61.17;6.10;;;;;;;-145.18;100.00;46691.66;5029936;28;20038;-70
2022/01/18 03:57:17;;;;;;;65.23;6.33;;;;;;;-145.18;100.00;46713.13;5029660;28;20046;-70
2022/01/18 03:59:43;;;;;;;69.97;6.83;;;;;;;-145.18;100.00;46711.19;5030009;28;20044;-70
2022/01/18 04:02:08;;;;;;;49.23;5.73;;;;;;;-145.18;100.00;46707.28;5029659;28;20354;-70
2022/01/18 04:04:34;;;;;;;29.90;5.40;;;;;;;-145.18;100.00;46695.56;5029846;28;20320;-70
2022/01/18 04:07:00;;;;;;;36.70;5.80;;;;;;;-145.18;100.00;46711.19;5029308;28;20489;-69
2022/01/18 04:09:26;;;;;;;37.70;5.93;;;;;;;-145.18;100.00;46685.78;5029596;28;20278;-70
2022/01/18 04:11:52;;;;;;;83.63;6.57;;;;;;;-145.18;100.00;46701.41;5029085;28;20045;-70
2022/01/18 04:14:17;;;;;;;42.33;5.93;;;;;;;-145.18;100.00;46685.78;5029367;28;20116;-70
2022/01/18 04:16:58;;;;;;;115.93;7.50;;;;;;;-145.18;100.00;46707.28;5029913;28;20698;-69
2022/01/18 04:25:50;;;;;;;89.37;7.63;;;;;;;-145.18;100.00;46697.50;5029119;28;20038;-69
2022/01/18 04:27:42;;;;;;;48.07;6.07;;;;;;;-145.18;100.00;46707.28;5028973;28;20620;-69
2022/01/18 04:30:08;;;;;;;188.37;9.67;;;;;;;-145.18;100.00;46699.47;5029086;28;20334;-69
2022/01/18 04:32:33;;;;;;;60.37;6.97;;;;;;;-145.18;100.00;46693.59;5028936;28;20255;-70
2022/01/18 04:34:59;;;;;;;168.20;9.10;;;;;;;-145.18;100.00;46703.38;5029008;28;20267;-69
2022/01/18 04:37:24;;;;;;;62.43;7.40;;;;;;;-145.18;100.00;46691.66;5028749;28;20026;-69
2022/01/18 04:39:50;;;;;;;20.40;5.70;;;;;;;-145.18;100.00;46705.31;5028975;28;20030;-70
2022/01/18 04:42:36;;;;;;;67.30;6.93;;;;;;;-145.18;100.00;46707.28;5029235;28;20044;-69
2022/01/18 04:50:44;;;;;;;36.43;6.97;;;;;;;-145.18;100.00;46695.56;4984758;28;20274;-69
2022/01/18 04:53:09;;;;;;;41.37;6.57;;;;;;;-145.18;100.00;46707.28;5010966;28;20274;-69
2022/01/18 04:55:36;;;;;;;57.63;6.70;;;;;;;-145.18;100.00;46695.56;5011326;28;20511;-69
2022/01/18 04:58:01;;;;;;;61.73;7.93;;;;;;;-145.18;100.00;46695.56;5027219;28;20547;-70
2022/01/18 05:00:26;;;;;;;34.97;5.73;;;;;;;-145.18;100.00;46697.50;5028935;28;20287;-70
2022/01/18 05:02:53;;;;;;;40.90;6.13;;;;;;;-145.18;100.00;46699.47;5027577;28;20063;-71
2022/01/18 05:05:28;;;;;;;71.83;7.50;;;;;;;-145.18;100.00;46693.59;5029511;28;20071;-69
2022/01/18 05:08:02;;;;;;;46.00;7.18;;;;;;;-145.18;100.00;46695.56;5027807;28;20278;-70
2022/01/18 05:10:29;;;;;;;38.20;6.67;;;;;;;-145.18;100.00;46699.47;5028816;28;20033;-69
2022/01/18 05:12:57;;;;;;;74.03;8.27;;;;;;;-145.18;100.00;46679.94;5027541;28;20715;-69
2022/01/18 05:23:07;;;;;;;112.47;9.37;;;;;;;-145.18;100.00;46705.31;5010225;28;20271;-69
2022/01/18 05:25:34;;;;;;;105.63;7.83;;;;;;;-145.18;100.00;46695.56;4994464;28;20120;-69
2022/01/18 05:28:01;;;;;;;104.43;8.67;;;;;;;-145.18;100.00;46701.41;5038335;28;20061;-69
2022/01/18 05:30:29;;;;;;;106.07;9.17;;;;;;;-145.18;100.00;46703.38;5047186;28;20266;-69
2022/01/18 05:32:55;;;;;;;127.00;9.90;;;;;;;-145.18;100.00;46693.59;5046404;28;20270;-69
2022/01/18 05:35:21;;;;;;;88.03;9.10;;;;;;;-145.18;100.00;46695.56;5047497;28;20286;-69
2022/01/18 05:37:47;;;;;;;107.10;8.43;;;;;;;-145.18;100.00;46687.75;5038928;28;20289;-69
2022/01/18 05:40:13;;;;;;;77.47;7.90;;;;;;;-145.18;100.00;46681.88;5047600;28;20072;-69
2022/01/18 05:42:39;;;;;;;59.87;8.33;;;;;;;-145.18;100.00;46683.84;5047225;28;20281;-69
2022/01/18 05:45:06;;;;;;;59.30;8.40;;;;;;;-145.18;100.00;46691.66;5047297;28;20282;-69
2022/01/18 05:47:32;;;;;;;41.35;7.88;;;;;;;-145.18;100.00;46693.59;5047399;28;20041;-69
2022/01/18 05:49:57;;;;;;;92.57;8.20;;;;;;;-145.18;100.00;46683.84;5047034;28;20090;-69
2022/01/18 05:52:23;;;;;;;84.27;7.93;;;;;;;-145.18;100.00;46681.88;5048256;28;20273;-69
2022/01/18 05:54:48;;;;;;;71.87;9.93;;;;;;;-145.18;100.00;46683.84;5047126;28;20053;-69
2022/01/18 05:57:14;;;;;;;40.23;7.90;;;;;;;-145.18;100.00;46693.59;5047482;28;20142;-69
2022/01/18 05:59:44;;;;;;;47.20;7.47;;;;;;;-145.18;100.00;46683.84;5047169;28;20043;-70
2022/01/18 06:02:16;;;;;;;63.47;8.80;;;;;;;-145.18;100.00;46683.84;5046305;28;20037;-69
2022/01/18 06:07:27;;;;;;;26.33;7.90;;;;;;;-145.18;100.00;46677.97;5045046;28;20292;-69
2022/01/18 06:09:56;;;;;;;49.77;9.17;;;;;;;-145.18;100.00;46693.59;5046406;28;20361;-69
2022/01/18 06:12:22;;;;;;;32.67;7.70;;;;;;;-145.18;100.00;46683.84;5046855;28;20266;-69
2022/01/18 06:14:48;;;;;;;25.17;8.90;;;;;;;-145.18;100.00;46681.88;5046642;28;20290;-69
2022/01/18 06:17:13;;;;;;;40.87;8.50;;;;;;;-145.18;100.00;46677.97;5027293;28;20351;-69
2022/01/18 06:19:39;;;;;;;41.47;8.53;;;;;;;-145.18;100.00;46677.97;5046676;28;20045;-69
2022/01/18 06:22:04;;;;;;;47.57;8.93;;;;;;;-145.18;100.00;46679.94;5029727;28;20055;-69
2022/01/18 06:24:30;;;;;;;94.13;10.73;;;;;;;-145.18;100.00;46664.31;5046912;28;20037;-69
2022/01/18 06:26:55;;;;;;;58.23;10.23;;;;;;;-145.18;100.00;46679.94;5029249;28;20037;-69
2022/01/18 06:29:21;;;;;;;55.30;10.53;;;;;;;-145.18;100.00;46670.16;5046696;28;20150;-69
2022/01/18 06:31:47;;;;;;;17.30;8.77;;;;;;;-145.18;100.00;46685.78;5028909;28;20032;-69
2022/01/18 06:34:14;;;;;;;27.30;8.97;;;;;;;-145.18;100.00;46681.88;5046757;28;20280;-69
2022/01/18 06:36:41;;;;;;;44.60;10.07;;;;;;;-145.18;100.00;46668.22;5047081;28;20274;-70
2022/01/18 06:39:06;;;;;;;56.10;10.30;;;;;;;-145.18;100.00;46668.22;5046332;28;20282;-69
2022/01/18 06:41:32;;;;;;;56.43;11.40;;;;;;;-145.18;100.00;46677.97;5046947;28;20277;-69
2022/01/18 06:43:57;;;;;;;27.13;9.53;;;;;;;-145.18;100.00;46668.22;5026825;28;20132;-69
2022/01/18 06:46:22;;;;;;;42.90;10.40;;;;;;;-145.18;100.00;46668.22;5036549;28;20045;-69
2022/01/18 06:48:48;;;;;;;33.40;11.33;;;;;;;-145.18;100.00;46672.13;5037789;28;20075;-69
2022/01/18 06:51:14;;;;;;;37.43;10.97;;;;;;;-145.18;100.00;46676.03;5046371;28;20061;-70
2022/01/18 06:53:45;;;;;;;24.20;9.80;;;;;;;-145.18;100.00;46672.13;5046631;28;20033;-69
2022/01/18 06:56:12;;;;;;;27.23;10.80;;;;;;;-145.18;100.00;46672.13;5045578;28;20558;-69
2022/01/18 06:58:38;;;;;;;39.60;11.13;;;;;;;-145.18;100.00;46670.16;5028446;28;23159;-69
2022/01/18 07:01:03;;;;;;;39.60;9.83;;;;;;;-145.18;100.00;46656.50;5045441;28;20332;-69
2022/01/18 07:03:29;;;;;;;43.40;10.97;;;;;;;-145.18;100.00;46656.50;5045977;28;20281;-69
2022/01/18 07:05:54;;;;;;;32.03;10.43;;;;;;;-145.18;100.00;46668.22;5046212;28;20397;-69
2022/01/18 07:08:19;;;;;;;40.93;11.67;;;;;;;-145.18;100.00;46668.22;5045904;28;20041;-71
2022/01/18 07:10:45;;;;;;;24.83;9.00;;;;;;;-145.18;100.00;46670.16;5046352;28;20045;-69
2022/01/18 07:13:13;;;;;;;33.87;9.17;;;;;;;-145.18;100.00;46654.53;5045824;28;21167;-69
2022/01/18 07:15:39;;;;;;;38.87;10.07;;;;;;;-145.18;100.00;46666.25;5046154;28;20119;-69
2022/01/18 07:18:05;;;;;;;22.17;8.87;;;;;;;-145.18;100.00;46660.41;5045481;28;20366;-69
2022/01/18 07:20:32;;;;;;;20.53;8.53;;;;;;;-145.18;100.00;46662.34;5029969;28;20025;-69
2022/01/18 07:22:57;;;;;;;27.37;11.03;;;;;;;-145.18;100.00;46666.25;5049395;28;20758;-70
2022/01/18 07:25:25;;;;;;;36.13;11.63;;;;;;;-145.18;100.00;46658.44;5051123;28;20265;-69
2022/01/18 07:27:50;;;;;;;48.70;13.70;;;;;;;-145.18;100.00;46654.53;5050003;28;20110;-69
2022/01/18 07:30:16;;;;;;;39.00;14.20;;;;;;;-145.18;100.00;46654.53;5050368;28;20675;-69
2022/01/18 07:32:41;;;;;;;61.77;17.53;;;;;;;-145.18;100.00;46660.41;5049710;28;20053;-69
2022/01/18 07:35:08;;;;;;;42.93;16.50;;;;;;;-145.18;100.00;46660.41;5031848;28;20060;-69
2022/01/18 07:37:34;;;;;;;44.77;16.77;;;;;;;-145.18;100.00;46658.44;5050207;28;20033;-69
2022/01/18 07:39:59;;;;;;;96.73;20.60;;;;;;;-145.18;100.00;46664.31;5031896;28;20642;-70
2022/01/18 07:42:25;;;;;;;51.13;17.23;;;;;;;-145.18;100.00;46664.31;5049548;28;20054;-69
2022/01/18 07:44:51;;;;;;;50.90;15.63;;;;;;;-145.18;100.00;46662.34;5030693;28;20101;-69
2022/01/18 07:47:16;;;;;;;39.20;14.50;;;;;;;-145.18;100.00;46656.50;5048088;28;20089;-69
2022/01/18 07:49:42;;;;;;;50.00;17.10;;;;;;;-145.18;100.00;46654.53;5048874;28;20313;-69
2022/01/18 07:52:07;;;;;;;48.10;13.53;;;;;;;-145.18;100.00;46658.44;5049644;28;20053;-69
2022/01/18 07:54:32;;;;;;;39.23;13.60;;;;;;;-145.18;100.00;46654.53;5049520;28;20083;-69
2022/01/18 07:56:58;;;;;;;47.33;14.33;;;;;;;-145.18;100.00;46654.53;5048507;28;20053;-69
2022/01/18 07:59:25;;;;;;;37.97;14.20;;;;;;;-145.18;100.00;46640.88;5048682;28;20051;-69
2022/01/18 08:01:50;;;;;;;48.17;13.90;;;;;;;-145.18;100.00;46654.53;5048750;28;20033;-69
2022/01/18 08:04:16;;;;;;;35.03;12.53;;;;;;;-145.18;100.00;46650.63;5048454;28;20282;-69
2022/01/18 08:06:41;;;;;;;83.67;14.17;;;;;;;-145.18;100.00;46648.69;5049027;28;20497;-69
2022/01/18 08:09:06;;;;;;;40.50;11.97;;;;;;;-145.18;100.00;46644.78;5048150;28;20462;-71
2022/01/18 08:11:32;;;;;;;41.10;12.23;;;;;;;-145.18;100.00;46650.63;5050087;28;20055;-69
2022/01/18 08:14:00;;;;;;;34.40;11.80;;;;;;;-145.18;100.00;46648.69;5048046;28;20045;-69
2022/01/18 08:18:56;;;;;;;44.53;13.13;;;;;;;-145.18;100.00;46650.63;5048206;28;20793;-69
2022/01/18 08:21:21;;;;;;;29.60;9.00;;;;;;;-145.18;100.00;46642.81;5049312;28;20850;-69
2022/01/18 08:23:47;;;;;;;37.80;11.40;;;;;;;-145.18;100.00;46640.88;5048537;28;20337;-69
2022/01/18 08:26:13;;;;;;;45.27;10.07;;;;;;;-145.18;100.00;46644.78;5048937;28;20053;-69
2022/01/18 08:28:38;;;;;;;44.30;8.80;;;;;;;-145.18;100.00;46640.88;5048268;28;20049;-69
2022/01/18 08:31:04;;;;;;;26.20;7.37;;;;;;;-145.18;100.00;46644.78;5047925;28;20053;-69
2022/01/18 08:33:31;;;;;;;16.93;6.17;;;;;;;-145.18;100.00;46636.94;5047856;28;20424;-69
2022/01/18 08:35:59;;;;;;;20.20;5.53;;;;;;;-145.18;100.00;46642.81;5048628;28;20098;-69
2022/01/18 08:38:25;;;;;;;18.83;4.67;;;;;;;-145.18;100.00;46640.88;5048632;28;20340;-69
2022/01/18 08:40:50;;;;;;;30.07;5.97;;;;;;;-145.18;100.00;46644.78;5048617;28;20278;-69
2022/01/18 08:43:16;;;;;;;22.40;4.93;;;;;;;-145.18;100.00;46640.88;5048502;28;20041;-69
2022/01/18 08:45:41;;;;;;;34.97;3.80;;;;;;;-145.18;100.00;46640.88;5049523;28;20115;-69
2022/01/18 08:48:07;;;;;;;20.70;3.73;;;;;;;-145.18;100.00;46638.91;5045781;28;20489;-69
2022/01/18 08:50:32;;;;;;;21.93;4.00;;;;;;;-145.18;100.00;46644.78;5046231;28;20065;-68
2022/01/18 08:52:58;;;;;;;20.43;3.43;;;;;;;-145.18;100.00;46642.81;5026982;28;20051;-69
2022/01/18 08:55:23;;;;;;;26.97;4.07;;;;;;;-145.18;100.00;46640.88;5010505;28;20416;-69
2022/01/18 08:57:49;;;;;;;13.20;4.20;;;;;;;-145.18;100.00;46638.91;5042872;28;20056;-70
2022/01/18 09:00:16;;;;;;;26.73;4.70;;;;;;;-145.18;100.00;46640.88;5047628;28;20540;-69
2022/01/18 09:02:42;;;;;;;23.80;5.50;;;;;;;-145.18;100.00;46640.88;5047731;28;20072;-69
2022/01/18 09:05:08;;;;;;;28.70;4.40;;;;;;;-145.18;100.00;46642.81;5047273;28;20298;-69
2022/01/18 09:07:36;;;;;;;30.17;4.97;;;;;;;-145.18;100.00;46642.81;5047659;28;20048;-69
2022/01/18 09:10:06;;;;;;;18.70;5.50;;;;;;;-145.18;100.00;46644.78;5047227;28;20766;-69
2022/01/18 09:12:32;;;;;;;39.43;5.20;;;;;;;-145.18;100.00;46642.81;5048424;28;20262;-69
2022/01/18 09:15:00;;;;;;;31.67;5.00;;;;;;;-145.18;100.00;46646.72;5046859;28;20277;-69
2022/01/18 09:17:28;;;;;;;25.27;5.53;;;;;;;-145.18;100.00;46644.78;5048101;28;20041;-69
2022/01/18 09:19:56;;;;;;;36.03;6.07;;;;;;;-145.18;100.00;46642.81;5047881;28;20280;-69
2022/01/18 09:22:22;;;;;;;39.07;6.30;;;;;;;-145.18;100.00;46638.91;5048508;28;20367;-69
2022/01/18 09:24:47;;;;;;;41.63;6.77;;;;;;;-145.18;100.00;46644.78;5047877;28;20759;-69
2022/01/18 09:27:13;;;;;;;43.83;6.33;;;;;;;-145.18;100.00;46646.72;5047743;28;20040;-69
2022/01/18 09:29:40;;;;;;;37.70;7.10;;;;;;;-145.18;100.00;46642.81;5047596;28;20163;-69
2022/01/18 09:32:06;;;;;;;63.07;9.60;;;;;;;-145.18;100.00;46636.94;5047578;28;20458;-69
2022/01/18 09:34:33;;;;;;;57.50;10.50;;;;;;;-145.18;100.00;46648.69;5028801;28;20274;-70
2022/01/18 09:36:59;;;;;;;54.30;12.40;;;;;;;-145.18;100.00;46652.59;5025665;28;20613;-69
2022/01/18 09:39:25;;;;;;;47.90;12.33;;;;;;;-145.18;100.00;46650.63;5027335;28;20340;-69
2022/01/18 09:41:53;;;;;;;49.30;12.00;;;;;;;-145.18;100.00;46646.72;5010016;28;20251;-69
2022/01/18 09:44:19;;;;;;;36.87;11.93;;;;;;;-145.18;100.00;46642.81;5039253;28;20289;-69
2022/01/18 09:46:47;;;;;;;39.63;11.83;;;;;;;-145.18;100.00;46656.50;5047627;28;20777;-70
2022/01/18 09:49:13;;;;;;;51.13;13.00;;;;;;;-145.18;100.00;46633.06;5046866;28;20271;-69
2022/01/18 09:51:38;;;;;;;37.83;12.47;;;;;;;-145.18;100.00;46636.94;5047438;28;20692;-69
2022/01/18 09:54:04;;;;;;;57.73;13.13;;;;;;;-145.18;100.00;46644.78;5045820;28;20420;-69
2022/01/18 09:56:30;;;;;;;62.43;13.47;;;;;;;-145.18;100.00;46652.59;5046886;28;20390;-68
2022/01/18 09:58:56;;;;;;;79.07;16.37;;;;;;;-145.18;100.00;46646.72;5046768;28;20294;-69
2022/01/18 10:01:21;;;;;;;65.97;15.30;;;;;;;-145.18;100.00;46636.94;5047429;28;20278;-69
2022/01/18 10:03:47;;;;;;;72.20;15.37;;;;;;;-145.18;100.00;46646.72;5046598;28;20124;-69
2022/01/18 10:06:12;;;;;;;69.83;20.00;;;;;;;-145.18;100.00;46640.88;5046633;28;20132;-69
2022/01/18 10:08:41;;;;;;;81.83;19.73;;;;;;;-145.18;100.00;46640.88;5029754;28;20041;-69
2022/01/18 10:11:14;;;;;;;90.50;20.23;;;;;;;-145.18;100.00;46644.78;5046588;28;20091;-69
2022/01/18 10:13:41;;;;;;;82.30;19.87;;;;;;;-145.18;100.00;46636.94;5045950;28;20781;-69
2022/01/18 10:16:10;;;;;;;101.47;22.13;;;;;;;-145.18;100.00;46648.69;5046029;28;20274;-69
2022/01/18 10:18:47;;;;;;;95.80;23.10;;;;;;;-145.18;100.00;46652.59;5046222;28;20693;-69
2022/01/18 10:21:24;;;;;;;87.30;23.90;;;;;;;-145.18;100.00;46646.72;5046716;28;20595;-69
2022/01/18 10:23:50;;;;;;;97.27;24.70;;;;;;;-145.18;100.00;46638.91;5046390;28;20247;-69
2022/01/18 10:26:20;;;;;;;112.60;29.00;;;;;;;-145.18;100.00;46638.91;5046198;28;20278;-69
2022/01/18 10:28:47;;;;;;;99.10;28.53;;;;;;;-145.18;100.00;46642.81;5045375;28;20270;-69
2022/01/18 10:37:04;;;;;;;106.67;30.17;;;;;;;-145.18;100.00;46640.88;5040690;28;20327;-69
2022/01/18 10:39:33;;;;;;;97.83;30.47;;;;;;;-145.18;100.00;46644.78;5041482;28;20266;-69
2022/01/18 10:41:59;;;;;;;114.87;32.00;;;;;;;-145.18;100.00;46644.78;5043703;28;20093;-69
2022/01/18 10:44:25;;;;;;;111.40;29.57;;;;;;;-145.18;100.00;46646.72;5043556;28;20637;-69
2022/01/18 10:46:57;;;;;;;99.70;31.27;;;;;;;-145.18;100.00;46648.69;5045467;28;20262;-70
2022/01/18 10:49:28;;;;;;;103.80;31.83;;;;;;;-145.18;100.00;46636.94;5045400;28;20048;-69
2022/01/18 10:51:59;;;;;;;113.60;32.33;;;;;;;-145.18;100.00;46633.06;5045932;28;20289;-69
2022/01/18 10:54:34;;;;;;;97.87;30.13;;;;;;;-145.18;100.00;46638.91;5045145;28;20679;-68
2022/01/18 10:57:06;;;;;;;105.93;30.73;;;;;;;-145.18;100.00;46646.72;5045803;28;20338;-69
2022/01/18 10:59:33;;;;;;;101.63;31.17;;;;;;;-145.18;100.00;46652.59;5043521;28;20513;-69
2022/01/18 11:02:14;;;;;;;89.97;29.80;;;;;;;-145.18;100.00;46642.81;5045442;28;20673;-69
2022/01/18 11:04:42;;;;;;;94.57;30.43;;;;;;;-145.18;100.00;46644.78;5045310;28;20309;-69
2022/01/18 11:07:09;;;;;;;97.60;30.03;;;;;;;-145.18;100.00;46646.72;5031466;28;20290;-69
2022/01/18 11:09:34;;;;;;;101.20;31.13;;;;;;;-145.18;100.00;46654.53;5029475;28;20636;-69
2022/01/18 11:12:00;;;;;;;83.40;29.83;;;;;;;-145.18;100.00;46648.69;5038093;28;20285;-69
2022/01/18 11:14:26;;;;;;;89.60;30.23;;;;;;;-145.18;100.00;46642.81;5046010;28;20386;-69
2022/01/18 11:16:56;;;;;;;92.80;30.73;;;;;;;-145.18;100.00;46646.72;5045641;28;20281;-69
2022/01/18 11:21:50;;;;;;;90.63;28.10;;;;;;;-145.18;100.00;46646.72;5045707;28;20770;-69
2022/01/18 11:24:17;;;;;;;90.77;29.00;;;;;;;-145.18;100.00;46658.44;5044281;28;20041;-68
2022/01/18 11:26:44;;;;;;;87.80;28.80;;;;;;;-145.18;100.00;46642.81;5046133;28;20366;-69
2022/01/18 11:29:12;;;;;;;73.10;27.13;;;;;;;-145.18;100.00;46656.50;5045550;28;20343;-69
2022/01/18 11:31:38;;;;;;;68.87;26.00;;;;;;;-145.18;100.00;46664.31;5046553;28;20285;-69
2022/01/18 11:34:06;;;;;;;82.23;28.13;;;;;;;-145.18;100.00;46660.41;5045595;28;20353;-69
2022/01/18 11:36:40;;;;;;;87.17;26.93;;;;;;;-145.18;100.00;46658.44;5045975;28;20432;-69
2022/01/18 11:39:09;;;;;;;77.33;26.23;;;;;;;-145.18;100.00;46672.13;5045586;28;20286;-69
2022/01/18 11:41:35;;;;;;;74.17;28.20;;;;;;;-145.18;100.00;46674.06;5046273;28;20270;-69
2022/01/18 11:44:19;;;;;;;74.63;27.50;;;;;;;-145.18;100.00;46672.13;5045675;28;20281;-69
2022/01/18 11:46:50;;;;;;;76.83;25.23;;;;;;;-145.18;100.00;46681.88;5046022;28;20283;-69
2022/01/18 11:49:22;;;;;;;63.43;24.90;;;;;;;-145.18;100.00;46676.03;5045562;28;20298;-69
2022/01/18 11:51:57;;;;;;;81.20;24.43;;;;;;;-145.18;100.00;46664.31;5046360;28;20789;-69
2022/01/18 11:57:00;;;;;;;59.43;23.33;;;;;;;-145.18;100.00;46674.06;5045840;28;20076;-69
2022/01/18 11:59:35;;;;;;;56.47;20.07;;;;;;;-145.18;100.00;46676.03;5045756;28;20246;-69
2022/01/18 12:02:03;;;;;;;54.20;19.60;;;;;;;-145.18;100.00;46677.97;5045943;28;20262;-69
2022/01/18 12:04:51;;;;;;;53.43;20.20;;;;;;;-145.18;100.00;46666.25;5045571;28;20839;-69
2022/01/18 12:07:38;;;;;;;68.13;20.67;;;;;;;-145.18;100.00;46679.94;5027467;28;20282;-69
2022/01/18 12:10:05;;;;;;;58.63;18.57;;;;;;;-145.18;100.00;46701.41;5040021;28;20278;-69
2022/01/18 12:12:39;;;;;;;56.70;18.83;;;;;;;-145.18;100.00;46709.22;5048614;28;20274;-69
2022/01/18 12:15:26;;;;;;;54.43;18.70;;;;;;;-145.18;100.00;46719.00;5044710;28;20282;-69
2022/01/18 12:17:59;;;;;;;62.33;19.87;;;;;;;-145.18;100.00;46701.41;5045695;28;20274;-69
2022/01/18 12:20:46;;;;;;;46.80;18.90;;;;;;;-145.18;100.00;46726.81;5048995;28;20361;-69
2022/01/18 12:23:12;;;;;;;48.77;17.57;;;;;;;-145.18;100.00;46730.72;5049152;28;20262;-69